Time;durP1;ratioP1;P1;durP2;ratioP2;P2;SDS_P1;SDS_P2;PMS_P1;PMS_P2;Temp;Humidity;BMP_temperature;BMP_pressure;BME280_temperature;BME280_humidity;BME280_pressure;Samples;Min_cycle;Max_cycle;Signal;HPM_P1;HPM_P2
2023/12/14 00:00:34;;;;;;;9.65;5.50;;;;;;;;;;5013065;28;20056;-82
2023/12/14 00:03:00;;;;;;;13.65;4.63;;;;;;;;;;5013136;28;20427;-82
2023/12/14 00:05:26;;;;;;;8.10;5.13;;;;;;;;;;5027253;28;20018;-82
2023/12/14 00:07:52;;;;;;;9.75;5.22;;;;;;;;;;5013276;28;20076;-82
2023/12/14 00:10:18;;;;;;;11.40;5.32;;;;;;;;;;5010919;28;20398;-83
2023/12/14 00:12:44;;;;;;;14.48;5.43;;;;;;;;;;5017982;28;20021;-82
2023/12/14 00:15:10;;;;;;;10.80;5.00;;;;;;;;;;5017906;28;20020;-82
2023/12/14 00:17:36;;;;;;;10.77;4.63;;;;;;;;;;5017971;28;20033;-83
2023/12/14 00:20:03;;;;;;;7.55;4.72;;;;;;;;;;5021575;28;20014;-83
2023/12/14 00:22:29;;;;;;;7.97;4.22;;;;;;;;;;5026579;28;20014;-83
2023/12/14 00:24:55;;;;;;;10.27;4.78;;;;;;;;;;5018892;28;20025;-83
2023/12/14 00:27:21;;;;;;;11.95;4.97;;;;;;;;;;5017435;28;20030;-83
2023/12/14 00:29:47;;;;;;;12.73;5.72;;;;;;;;;;5025800;28;20020;-83
2023/12/14 00:32:13;;;;;;;12.55;5.97;;;;;;;;;;5016884;28;20017;-83
2023/12/14 00:34:40;;;;;;;10.48;5.28;;;;;;;;;;5025322;28;20041;-83
2023/12/14 00:37:06;;;;;;;9.10;4.47;;;;;;;;;;5022476;28;20013;-82
2023/12/14 00:39:32;;;;;;;12.32;5.43;;;;;;;;;;5024576;28;20096;-83
2023/12/14 00:41:58;;;;;;;9.60;5.40;;;;;;;;;;5013976;28;20025;-83
2023/12/14 00:44:24;;;;;;;10.13;4.90;;;;;;;;;;5016894;28;20072;-83
2023/12/14 00:46:50;;;;;;;11.00;5.22;;;;;;;;;;5019488;28;20088;-83
2023/12/14 00:49:18;;;;;;;10.32;5.00;;;;;;;;;;5016102;28;20017;-83
2023/12/14 00:51:44;;;;;;;8.05;3.95;;;;;;;;;;5013733;28;20025;-83
2023/12/14 00:54:10;;;;;;;12.43;4.30;;;;;;;;;;5014528;28;20017;-83
2023/12/14 00:56:36;;;;;;;11.07;5.18;;;;;;;;;;5017847;28;20075;-83
2023/12/14 00:59:02;;;;;;;8.38;3.47;;;;;;;;;;5023737;28;20059;-83
2023/12/14 01:01:28;;;;;;;7.22;3.85;;;;;;;;;;5022910;28;20013;-83
2023/12/14 01:03:54;;;;;;;10.70;4.78;;;;;;;;;;5019622;28;20014;-83
2023/12/14 01:06:20;;;;;;;9.43;4.60;;;;;;;;;;5014744;28;20010;-82
2023/12/14 01:08:46;;;;;;;9.25;4.47;;;;;;;;;;5020834;28;20048;-83
2023/12/14 01:11:12;;;;;;;15.20;5.38;;;;;;;;;;5024248;28;20017;-83
2023/12/14 01:13:38;;;;;;;7.28;3.58;;;;;;;;;;5020303;28;20014;-83
2023/12/14 01:16:05;;;;;;;4.97;3.08;;;;;;;;;;5026583;28;20025;-83
2023/12/14 01:18:31;;;;;;;8.48;4.13;;;;;;;;;;5018715;28;20084;-83
2023/12/14 01:20:57;;;;;;;8.77;4.28;;;;;;;;;;5032661;28;20064;-83
2023/12/14 01:23:23;;;;;;;10.98;4.13;;;;;;;;;;5023077;28;20053;-83
2023/12/14 01:25:49;;;;;;;7.38;4.57;;;;;;;;;;5019423;28;20023;-83
2023/12/14 01:28:15;;;;;;;9.52;4.15;;;;;;;;;;5029344;28;20029;-83
2023/12/14 01:30:41;;;;;;;8.63;4.53;;;;;;;;;;5016940;28;20029;-83
2023/12/14 01:33:07;;;;;;;11.35;4.85;;;;;;;;;;5025592;28;20056;-83
2023/12/14 01:35:33;;;;;;;10.48;6.00;;;;;;;;;;5018190;28;20037;-83
2023/12/14 01:37:59;;;;;;;7.97;5.18;;;;;;;;;;5025407;28;20053;-83
2023/12/14 01:40:25;;;;;;;9.70;5.15;;;;;;;;;;5019106;28;20525;-83
2023/12/14 01:42:51;;;;;;;9.70;5.10;;;;;;;;;;5022491;28;20030;-83
2023/12/14 01:45:18;;;;;;;6.63;4.57;;;;;;;;;;5019439;28;20022;-83
2023/12/14 01:47:44;;;;;;;8.43;4.82;;;;;;;;;;5019468;28;20057;-82
2023/12/14 01:50:11;;;;;;;7.45;4.30;;;;;;;;;;5025110;28;20010;-83
2023/12/14 01:52:37;;;;;;;11.23;4.50;;;;;;;;;;5022957;28;20092;-83
2023/12/14 01:55:03;;;;;;;10.27;5.38;;;;;;;;;;5017992;28;20552;-83
2023/12/14 01:57:29;;;;;;;7.60;4.50;;;;;;;;;;5019448;28;20071;-83
2023/12/14 01:59:55;;;;;;;9.60;5.57;;;;;;;;;;5021608;28;20010;-83
2023/12/14 02:02:21;;;;;;;8.57;5.40;;;;;;;;;;5022772;28;20068;-83
2023/12/14 02:04:47;;;;;;;10.98;5.57;;;;;;;;;;5025507;28;20473;-83
2023/12/14 02:07:13;;;;;;;9.25;5.63;;;;;;;;;;5022384;28;20428;-83
2023/12/14 02:09:39;;;;;;;9.30;4.90;;;;;;;;;;5014367;28;20013;-83
2023/12/14 02:12:05;;;;;;;9.90;5.25;;;;;;;;;;5016728;28;20028;-83
2023/12/14 02:14:31;;;;;;;8.93;4.93;;;;;;;;;;5018492;28;20052;-83
2023/12/14 02:16:57;;;;;;;8.75;4.22;;;;;;;;;;5025764;28;20073;-83
2023/12/14 02:19:23;;;;;;;11.55;5.28;;;;;;;;;;5023119;28;20104;-83
2023/12/14 02:21:49;;;;;;;9.25;5.28;;;;;;;;;;5028874;28;20013;-83
2023/12/14 02:24:16;;;;;;;10.05;5.13;;;;;;;;;;5030497;28;20417;-83
2023/12/14 02:26:42;;;;;;;10.15;5.20;;;;;;;;;;5014049;28;20037;-83
2023/12/14 02:29:08;;;;;;;10.90;6.05;;;;;;;;;;5024577;28;20016;-83
2023/12/14 02:31:34;;;;;;;10.70;5.35;;;;;;;;;;5016484;28;20162;-83
2023/12/14 02:34:00;;;;;;;11.68;5.72;;;;;;;;;;5012579;28;20429;-84
2023/12/14 02:36:26;;;;;;;10.52;5.15;;;;;;;;;;5018202;28;20026;-83
2023/12/14 02:38:52;;;;;;;12.18;5.45;;;;;;;;;;5017364;28;20021;-83
2023/12/14 02:41:19;;;;;;;9.80;5.68;;;;;;;;;;5022148;28;20024;-83
2023/12/14 02:43:45;;;;;;;13.80;5.30;;;;;;;;;;5026732;28;20186;-83
2023/12/14 02:46:13;;;;;;;9.25;5.28;;;;;;;;;;5015711;28;20093;-83
2023/12/14 02:48:42;;;;;;;11.57;6.10;;;;;;;;;;5020900;28;20026;-83
2023/12/14 02:51:08;;;;;;;10.52;5.60;;;;;;;;;;5015621;28;20014;-83
2023/12/14 02:53:34;;;;;;;10.82;5.78;;;;;;;;;;5023375;28;20359;-83
2023/12/14 02:56:03;;;;;;;12.02;5.97;;;;;;;;;;5018869;28;20015;-83
2023/12/14 02:58:29;;;;;;;11.20;6.00;;;;;;;;;;5022497;28;20506;-83
2023/12/14 03:00:55;;;;;;;12.27;6.30;;;;;;;;;;5013842;28;20029;-83
2023/12/14 03:03:21;;;;;;;10.45;5.40;;;;;;;;;;5017748;28;20024;-83
2023/12/14 03:05:49;;;;;;;11.68;5.45;;;;;;;;;;5015503;28;20022;-83
2023/12/14 03:08:15;;;;;;;11.82;5.68;;;;;;;;;;5027526;28;20025;-83
2023/12/14 03:10:41;;;;;;;11.02;5.75;;;;;;;;;;5018414;28;20022;-83
2023/12/14 03:13:07;;;;;;;12.52;6.10;;;;;;;;;;5013438;28;20603;-83
2023/12/14 03:15:33;;;;;;;11.93;6.72;;;;;;;;;;5030348;28;20009;-83
2023/12/14 03:17:59;;;;;;;15.20;6.85;;;;;;;;;;5020095;28;20176;-83
2023/12/14 03:20:25;;;;;;;11.55;6.22;;;;;;;;;;5019599;28;20010;-83
2023/12/14 03:22:51;;;;;;;12.18;6.80;;;;;;;;;;5021168;28;20029;-83
2023/12/14 03:25:17;;;;;;;13.52;7.13;;;;;;;;;;5018375;28;20493;-83
2023/12/14 03:27:43;;;;;;;15.02;7.07;;;;;;;;;;5020970;28;20029;-83
2023/12/14 03:30:09;;;;;;;11.40;6.13;;;;;;;;;;5015602;28;20121;-83
2023/12/14 03:32:35;;;;;;;11.98;6.68;;;;;;;;;;5008933;28;20018;-82
2023/12/14 03:35:01;;;;;;;14.57;6.75;;;;;;;;;;5028400;28;20018;-83
2023/12/14 03:37:27;;;;;;;12.32;6.28;;;;;;;;;;5018190;28;20021;-84
2023/12/14 03:39:53;;;;;;;15.60;7.22;;;;;;;;;;5025933;28;20028;-83
2023/12/14 03:42:19;;;;;;;15.55;7.03;;;;;;;;;;5012235;28;20022;-83
2023/12/14 03:44:45;;;;;;;11.43;5.82;;;;;;;;;;5025449;28;20075;-83
2023/12/14 03:47:11;;;;;;;15.00;6.68;;;;;;;;;;5019563;28;20113;-83
2023/12/14 03:49:40;;;;;;;14.70;7.57;;;;;;;;;;5014274;28;20021;-83
2023/12/14 03:52:06;;;;;;;14.15;7.13;;;;;;;;;;5014173;28;20006;-83
2023/12/14 03:54:33;;;;;;;13.73;7.13;;;;;;;;;;5013213;28;20014;-83
2023/12/14 03:56:58;;;;;;;15.38;7.28;;;;;;;;;;5012517;28;20017;-83
2023/12/14 03:59:24;;;;;;;17.58;7.95;;;;;;;;;;5024753;28;20536;-83
2023/12/14 04:01:50;;;;;;;12.57;6.72;;;;;;;;;;5028233;28;20022;-83
2023/12/14 04:04:16;;;;;;;14.27;7.18;;;;;;;;;;5017972;28;20021;-83
2023/12/14 04:06:42;;;;;;;14.55;6.60;;;;;;;;;;5027219;28;20389;-83
2023/12/14 04:09:10;;;;;;;14.60;6.63;;;;;;;;;;5022043;28;20093;-83
2023/12/14 04:11:36;;;;;;;19.65;7.47;;;;;;;;;;5020914;28;20025;-83
2023/12/14 04:14:02;;;;;;;20.05;8.07;;;;;;;;;;5006257;28;20018;-83
2023/12/14 04:16:28;;;;;;;16.23;7.57;;;;;;;;;;5024655;28;20030;-83
2023/12/14 04:18:54;;;;;;;17.85;7.30;;;;;;;;;;5024008;28;20132;-83
2023/12/14 04:21:20;;;;;;;12.23;6.70;;;;;;;;;;5015730;28;20112;-83
2023/12/14 04:23:46;;;;;;;15.73;6.78;;;;;;;;;;5018564;28;20018;-83
2023/12/14 04:26:13;;;;;;;15.75;7.30;;;;;;;;;;5027072;28;20040;-83
2023/12/14 04:28:39;;;;;;;14.05;7.43;;;;;;;;;;5018480;28;20044;-83
2023/12/14 04:31:05;;;;;;;19.25;6.88;;;;;;;;;;5014571;28;20537;-83
2023/12/14 04:33:31;;;;;;;14.70;7.95;;;;;;;;;;5026307;28;20017;-83
2023/12/14 04:35:58;;;;;;;18.02;8.05;;;;;;;;;;5023138;28;20524;-83
2023/12/14 04:38:23;;;;;;;17.65;7.90;;;;;;;;;;5024076;28;20017;-83
2023/12/14 04:40:50;;;;;;;14.90;7.60;;;;;;;;;;5017024;28;20326;-83
2023/12/14 04:43:16;;;;;;;15.98;7.70;;;;;;;;;;5019678;28;20010;-83
2023/12/14 04:45:42;;;;;;;19.30;8.40;;;;;;;;;;5021784;28;20032;-83
2023/12/14 04:48:08;;;;;;;19.35;8.88;;;;;;;;;;5024520;28;20026;-80
2023/12/14 04:50:34;;;;;;;23.33;8.55;;;;;;;;;;5018388;28;20040;-82
2023/12/14 04:53:00;;;;;;;16.73;7.65;;;;;;;;;;5014319;28;20014;-81
2023/12/14 04:55:26;;;;;;;21.83;8.60;;;;;;;;;;5021829;28;20067;-82
2023/12/14 04:57:52;;;;;;;20.05;7.53;;;;;;;;;;5017282;28;20385;-82
2023/12/14 05:00:18;;;;;;;16.40;7.88;;;;;;;;;;5021381;28;20469;-82
2023/12/14 05:02:48;;;;;;;22.90;9.32;;;;;;;;;;5018496;28;20444;-82
2023/12/14 05:05:14;;;;;;;14.27;7.63;;;;;;;;;;5015078;28;20040;-82
2023/12/14 05:07:40;;;;;;;18.90;8.43;;;;;;;;;;5022028;28;20056;-78
2023/12/14 05:10:06;;;;;;;19.15;7.43;;;;;;;;;;5016623;28;20216;-82
2023/12/14 05:12:32;;;;;;;17.95;7.90;;;;;;;;;;5015780;28;20068;-82
2023/12/14 05:14:58;;;;;;;16.35;7.72;;;;;;;;;;5015190;28;20013;-80
2023/12/14 05:17:24;;;;;;;20.08;7.53;;;;;;;;;;5024800;28;20048;-80
2023/12/14 05:19:50;;;;;;;19.50;7.68;;;;;;;;;;5009899;28;20020;-80
2023/12/14 05:22:17;;;;;;;17.55;7.75;;;;;;;;;;5010854;28;20541;-79
2023/12/14 05:24:45;;;;;;;16.10;8.07;;;;;;;;;;5017824;28;20377;-81
2023/12/14 05:27:11;;;;;;;16.27;7.63;;;;;;;;;;5009780;28;21366;-79
2023/12/14 05:29:37;;;;;;;12.60;6.85;;;;;;;;;;5007558;28;20021;-79
2023/12/14 05:32:03;;;;;;;16.58;7.82;;;;;;;;;;5010969;28;20600;-79
2023/12/14 05:34:29;;;;;;;15.98;7.78;;;;;;;;;;5010016;28;20042;-79
2023/12/14 05:36:55;;;;;;;15.20;7.75;;;;;;;;;;5007440;28;20021;-79
2023/12/14 05:39:21;;;;;;;15.57;7.93;;;;;;;;;;5005115;28;20894;-79
2023/12/14 05:41:47;;;;;;;18.38;8.23;;;;;;;;;;5013928;28;20075;-79
2023/12/14 05:44:13;;;;;;;15.70;8.00;;;;;;;;;;5027489;28;20113;-79
2023/12/14 05:46:39;;;;;;;16.92;8.13;;;;;;;;;;5019771;28;20037;-79
2023/12/14 05:49:05;;;;;;;17.70;7.40;;;;;;;;;;5020793;28;20006;-79
2023/12/14 05:51:32;;;;;;;21.00;7.88;;;;;;;;;;5019773;28;20103;-78
2023/12/14 05:53:58;;;;;;;17.45;8.52;;;;;;;;;;5012764;28;20018;-78
2023/12/14 05:56:25;;;;;;;17.27;9.98;;;;;;;;;;5002915;28;20101;-78
2023/12/14 05:58:51;;;;;;;16.73;8.05;;;;;;;;;;5017832;28;20325;-78
2023/12/14 06:01:17;;;;;;;18.48;8.30;;;;;;;;;;5027388;28;20159;-78
2023/12/14 06:03:44;;;;;;;14.70;7.95;;;;;;;;;;5009153;28;20014;-79
2023/12/14 06:06:11;;;;;;;15.30;7.22;;;;;;;;;;5020287;28;20509;-81
2023/12/14 06:08:38;;;;;;;17.17;7.57;;;;;;;;;;5029371;28;20769;-77
2023/12/14 06:11:06;;;;;;;14.02;7.95;;;;;;;;;;5014886;28;20017;-77
2023/12/14 06:13:32;;;;;;;16.00;7.68;;;;;;;;;;5026040;28;20010;-76
2023/12/14 06:15:58;;;;;;;16.60;7.93;;;;;;;;;;5031178;28;20044;-77
2023/12/14 06:18:24;;;;;;;18.38;9.27;;;;;;;;;;5030121;28;20025;-77
2023/12/14 06:20:50;;;;;;;15.60;8.10;;;;;;;;;;5029105;28;20023;-77
2023/12/14 06:23:16;;;;;;;16.20;7.63;;;;;;;;;;5011710;28;20028;-77
2023/12/14 06:25:42;;;;;;;13.00;7.78;;;;;;;;;;5010438;28;20021;-78
2023/12/14 06:28:08;;;;;;;19.05;9.20;;;;;;;;;;5029494;28;20033;-77
2023/12/14 06:30:34;;;;;;;18.05;7.88;;;;;;;;;;5031293;28;20490;-78
2023/12/14 06:33:00;;;;;;;14.98;7.35;;;;;;;;;;5012563;28;20017;-78
2023/12/14 06:35:26;;;;;;;15.00;7.90;;;;;;;;;;5010559;28;20382;-78
2023/12/14 06:37:52;;;;;;;16.60;7.72;;;;;;;;;;5026973;28;20025;-78
2023/12/14 06:40:19;;;;;;;18.63;8.27;;;;;;;;;;5030020;28;20052;-78
2023/12/14 06:42:45;;;;;;;16.42;7.95;;;;;;;;;;5015887;28;20720;-78
2023/12/14 06:45:11;;;;;;;19.27;8.07;;;;;;;;;;5011323;28;20021;-78
2023/12/14 06:47:37;;;;;;;18.33;8.10;;;;;;;;;;5022165;28;20029;-77
2023/12/14 06:50:04;;;;;;;19.30;6.95;;;;;;;;;;5031019;28;20067;-78
2023/12/14 06:52:30;;;;;;;17.48;7.85;;;;;;;;;;5019993;28;20097;-79
2023/12/14 06:54:57;;;;;;;15.05;7.82;;;;;;;;;;5011166;28;20453;-78
2023/12/14 06:57:23;;;;;;;17.73;8.52;;;;;;;;;;5019091;28;20021;-78
2023/12/14 06:59:49;;;;;;;17.95;8.27;;;;;;;;;;5017396;28;20109;-79
2023/12/14 07:02:15;;;;;;;16.15;8.25;;;;;;;;;;5006620;28;20101;-78
2023/12/14 07:04:41;;;;;;;18.40;8.30;;;;;;;;;;5026185;28;20241;-79
2023/12/14 07:07:07;;;;;;;12.27;6.88;;;;;;;;;;5026293;28;20113;-79
2023/12/14 07:09:33;;;;;;;17.60;7.85;;;;;;;;;;5030642;28;20373;-79
2023/12/14 07:12:02;;;;;;;20.27;8.38;;;;;;;;;;5022299;28;20009;-79
2023/12/14 07:14:28;;;;;;;14.52;7.18;;;;;;;;;;5028191;28;20013;-79
2023/12/14 07:16:54;;;;;;;13.80;7.97;;;;;;;;;;5024166;28;20099;-79
2023/12/14 07:19:20;;;;;;;14.88;7.68;;;;;;;;;;5008793;28;20104;-79
2023/12/14 07:21:46;;;;;;;16.00;8.75;;;;;;;;;;5009666;28;20048;-79
2023/12/14 07:24:12;;;;;;;20.77;8.35;;;;;;;;;;5028379;28;20105;-79
2023/12/14 07:26:38;;;;;;;18.40;8.35;;;;;;;;;;5028354;28;20022;-79
2023/12/14 07:29:04;;;;;;;14.05;7.80;;;;;;;;;;5008412;28;20018;-79
2023/12/14 07:31:30;;;;;;;16.80;7.60;;;;;;;;;;5008357;28;20447;-78
2023/12/14 07:33:56;;;;;;;17.38;9.27;;;;;;;;;;5027591;28;20044;-79
2023/12/14 07:36:22;;;;;;;17.02;9.32;;;;;;;;;;5029469;28;20022;-79
2023/12/14 07:38:48;;;;;;;18.35;9.00;;;;;;;;;;5011734;28;20014;-79
2023/12/14 07:41:15;;;;;;;16.92;9.27;;;;;;;;;;5008350;28;20056;-79
2023/12/14 07:43:41;;;;;;;12.23;7.43;;;;;;;;;;5023071;28;20109;-79
2023/12/14 07:46:07;;;;;;;18.00;7.50;;;;;;;;;;5027902;28;20112;-79
2023/12/14 07:48:33;;;;;;;16.58;8.48;;;;;;;;;;5014481;28;20022;-78
2023/12/14 07:50:59;;;;;;;16.08;8.45;;;;;;;;;;5008044;28;20021;-79
2023/12/14 07:53:26;;;;;;;16.30;8.45;;;;;;;;;;5018605;28;20013;-79
2023/12/14 07:55:52;;;;;;;16.05;7.63;;;;;;;;;;5028198;28;20018;-79
2023/12/14 07:58:18;;;;;;;13.82;7.15;;;;;;;;;;5020524;28;20087;-79
2023/12/14 08:00:44;;;;;;;19.70;8.63;;;;;;;;;;5011420;28;20311;-79
2023/12/14 08:03:10;;;;;;;16.48;8.02;;;;;;;;;;5013063;28;20014;-78
2023/12/14 08:05:36;;;;;;;16.75;7.75;;;;;;;;;;5003859;28;20546;-79
2023/12/14 08:08:02;;;;;;;16.40;8.23;;;;;;;;;;5013649;28;20104;-80
2023/12/14 08:10:28;;;;;;;19.52;8.75;;;;;;;;;;5028583;28;20018;-78
2023/12/14 08:12:54;;;;;;;19.58;7.80;;;;;;;;;;5020901;28;20363;-79
2023/12/14 08:15:20;;;;;;;16.75;8.30;;;;;;;;;;5007987;28;20025;-79
2023/12/14 08:17:46;;;;;;;16.52;8.95;;;;;;;;;;5008502;28;20034;-79
2023/12/14 08:20:13;;;;;;;17.70;8.57;;;;;;;;;;5008428;28;20028;-78
2023/12/14 08:22:44;;;;;;;23.48;8.68;;;;;;;;;;5005527;28;20014;-80
2023/12/14 08:25:12;;;;;;;17.25;8.48;;;;;;;;;;5024633;28;20026;-79
2023/12/14 08:27:38;;;;;;;14.88;7.85;;;;;;;;;;5007567;28;20049;-78
2023/12/14 08:30:05;;;;;;;17.05;8.30;;;;;;;;;;5009137;28;20462;-78
2023/12/14 08:32:31;;;;;;;17.45;8.68;;;;;;;;;;5008083;28;20018;-78
2023/12/14 08:34:57;;;;;;;21.30;8.82;;;;;;;;;;5014563;28;20014;-78
2023/12/14 08:37:23;;;;;;;20.92;8.48;;;;;;;;;;5007537;28;20014;-78
2023/12/14 08:39:49;;;;;;;16.27;9.23;;;;;;;;;;5007699;28;20389;-79
2023/12/14 08:42:15;;;;;;;18.42;9.30;;;;;;;;;;5007970;28;20474;-79
2023/12/14 08:44:41;;;;;;;16.67;9.52;;;;;;;;;;5007489;28;20492;-78
2023/12/14 08:47:08;;;;;;;15.75;8.98;;;;;;;;;;5007518;28;20076;-78
2023/12/14 08:49:35;;;;;;;16.70;8.80;;;;;;;;;;5016346;28;20371;-78
2023/12/14 08:52:01;;;;;;;19.30;8.40;;;;;;;;;;4991540;28;20006;-78
2023/12/14 08:54:28;;;;;;;16.48;8.50;;;;;;;;;;5034937;28;20013;-78
2023/12/14 08:56:54;;;;;;;16.52;9.00;;;;;;;;;;5027797;28;20029;-78
2023/12/14 08:59:20;;;;;;;19.27;9.02;;;;;;;;;;5016848;28;20025;-78
2023/12/14 09:01:46;;;;;;;21.65;10.05;;;;;;;;;;5009369;28;20018;-78
2023/12/14 09:04:13;;;;;;;18.70;9.02;;;;;;;;;;5007506;28;20022;-78
2023/12/14 09:06:42;;;;;;;16.92;9.15;;;;;;;;;;5008975;28;20124;-79
2023/12/14 09:09:08;;;;;;;20.48;9.52;;;;;;;;;;5015292;28;20021;-79
2023/12/14 09:11:36;;;;;;;17.38;9.52;;;;;;;;;;5028842;28;20018;-79
2023/12/14 09:14:02;;;;;;;19.77;9.32;;;;;;;;;;5018630;28;20021;-78
2023/12/14 09:16:28;;;;;;;20.33;9.68;;;;;;;;;;5005878;28;20558;-79
2023/12/14 09:18:54;;;;;;;17.60;9.15;;;;;;;;;;5007873;28;20373;-78
2023/12/14 09:21:20;;;;;;;18.95;9.23;;;;;;;;;;5005931;28;20014;-79
2023/12/14 09:23:46;;;;;;;18.55;9.02;;;;;;;;;;5010569;28;20184;-78
2023/12/14 09:26:12;;;;;;;16.80;9.23;;;;;;;;;;5015514;28;20022;-78
2023/12/14 09:28:38;;;;;;;18.75;9.27;;;;;;;;;;5012292;28;20543;-77
2023/12/14 09:31:04;;;;;;;23.13;9.88;;;;;;;;;;5006469;28;20018;-78
2023/12/14 09:33:30;;;;;;;18.80;9.45;;;;;;;;;;5006467;28;20049;-79
2023/12/14 09:35:56;;;;;;;20.50;10.70;;;;;;;;;;5008014;28;20033;-78
2023/12/14 09:38:22;;;;;;;21.50;10.10;;;;;;;;;;5007419;28;20674;-79
2023/12/14 09:40:48;;;;;;;25.25;9.80;;;;;;;;;;5009506;28;20492;-78
2023/12/14 09:43:14;;;;;;;26.58;10.18;;;;;;;;;;5010292;28;20037;-79
2023/12/14 09:45:44;;;;;;;22.23;9.63;;;;;;;;;;5017077;28;20029;-78
2023/12/14 09:48:11;;;;;;;22.05;9.80;;;;;;;;;;5011606;28;20022;-75
2023/12/14 09:50:39;;;;;;;21.63;10.23;;;;;;;;;;5009111;28;20034;-77
2023/12/14 09:53:07;;;;;;;22.60;10.10;;;;;;;;;;5011425;28;20014;-81
2023/12/14 09:55:33;;;;;;;19.88;9.90;;;;;;;;;;5010995;28;20323;-82
2023/12/14 09:57:59;;;;;;;23.38;10.13;;;;;;;;;;5011648;28;20022;-82
2023/12/14 10:00:38;;;;;;;20.95;9.93;;;;;;;;;;5021642;28;20477;-81
2023/12/14 10:03:25;;;;;;;18.83;8.98;;;;;;;;;;5029766;28;20124;-83
2023/12/14 10:05:52;;;;;;;21.90;10.35;;;;;;;;;;5013373;28;20029;-80
2023/12/14 10:08:19;;;;;;;21.73;10.15;;;;;;;;;;5005571;28;20913;-80
2023/12/14 10:10:49;;;;;;;20.42;10.27;;;;;;;;;;5023982;28;20444;-80
2023/12/14 10:13:15;;;;;;;19.27;9.80;;;;;;;;;;4996878;28;20019;-80
2023/12/14 10:15:48;;;;;;;21.35;9.73;;;;;;;;;;5035157;28;20180;-80
2023/12/14 10:18:24;;;;;;;19.90;9.68;;;;;;;;;;5023277;28;20057;-79
2023/12/14 10:20:51;;;;;;;18.73;9.38;;;;;;;;;;5025569;28;20435;-80
2023/12/14 10:23:18;;;;;;;19.45;9.70;;;;;;;;;;5028196;28;20429;-79
2023/12/14 10:25:45;;;;;;;18.23;8.82;;;;;;;;;;5016029;28;20024;-79
2023/12/14 10:28:14;;;;;;;17.42;9.10;;;;;;;;;;5007448;28;20080;-79
2023/12/14 10:30:41;;;;;;;19.45;9.57;;;;;;;;;;5010012;28;20100;-79
2023/12/14 10:33:07;;;;;;;15.60;8.10;;;;;;;;;;5008732;28;20520;-79
2023/12/14 10:35:33;;;;;;;15.13;8.60;;;;;;;;;;4996189;28;20018;-80
2023/12/14 10:38:04;;;;;;;12.30;7.28;;;;;;;;;;5020140;28;20018;-79
2023/12/14 10:40:30;;;;;;;14.50;8.25;;;;;;;;;;5021934;28;20013;-79
2023/12/14 10:42:57;;;;;;;15.93;8.18;;;;;;;;;;5028823;28;20061;-79
2023/12/14 10:45:26;;;;;;;17.98;9.10;;;;;;;;;;5015221;28;20152;-80
2023/12/14 10:47:52;;;;;;;17.52;8.73;;;;;;;;;;5008921;28;20098;-79
2023/12/14 10:50:19;;;;;;;18.92;9.75;;;;;;;;;;5025789;28;20778;-79
2023/12/14 10:52:45;;;;;;;14.27;8.02;;;;;;;;;;5008840;28;20014;-79
2023/12/14 10:55:19;;;;;;;14.05;7.95;;;;;;;;;;5009442;28;20060;-79
2023/12/14 10:57:46;;;;;;;15.82;9.13;;;;;;;;;;5007915;28;20018;-79
2023/12/14 11:00:12;;;;;;;17.48;8.38;;;;;;;;;;5024572;28;20030;-79
2023/12/14 11:02:43;;;;;;;15.95;8.13;;;;;;;;;;5022274;28;20691;-79
2023/12/14 11:05:09;;;;;;;15.40;8.32;;;;;;;;;;5009890;28;20485;-79
2023/12/14 11:07:44;;;;;;;21.63;9.75;;;;;;;;;;5008102;28;20359;-79
2023/12/14 11:10:11;;;;;;;19.33;10.30;;;;;;;;;;5009824;28;20026;-79
2023/12/14 11:12:37;;;;;;;18.80;9.85;;;;;;;;;;5008578;28;20018;-79
2023/12/14 11:15:07;;;;;;;17.55;8.60;;;;;;;;;;5009900;28;20006;-80
2023/12/14 11:17:35;;;;;;;13.82;7.80;;;;;;;;;;4999454;28;20049;-79
2023/12/14 11:20:21;;;;;;;14.15;7.75;;;;;;;;;;5020460;28;20017;-78
2023/12/14 11:22:47;;;;;;;14.23;7.32;;;;;;;;;;5028441;28;20108;-78
2023/12/14 11:25:13;;;;;;;13.10;7.35;;;;;;;;;;5019111;28;20045;-80
2023/12/14 11:27:43;;;;;;;14.50;7.18;;;;;;;;;;5019265;28;20081;-81
2023/12/14 11:30:11;;;;;;;15.73;7.28;;;;;;;;;;5014757;28;20018;-80
2023/12/14 11:32:37;;;;;;;14.10;6.72;;;;;;;;;;5028309;28;20013;-81
2023/12/14 11:35:03;;;;;;;10.35;6.28;;;;;;;;;;5025956;28;20014;-80
2023/12/14 11:37:30;;;;;;;11.55;6.35;;;;;;;;;;5008348;28;20022;-80
2023/12/14 11:39:56;;;;;;;12.45;6.28;;;;;;;;;;5009999;28;20044;-80
2023/12/14 11:42:22;;;;;;;15.30;6.93;;;;;;;;;;5027836;28;20409;-80
2023/12/14 11:44:48;;;;;;;12.18;6.15;;;;;;;;;;5027766;28;20496;-80
2023/12/14 11:47:14;;;;;;;11.80;6.20;;;;;;;;;;5028205;28;20064;-80
2023/12/14 11:49:40;;;;;;;10.77;6.10;;;;;;;;;;5028243;28;20021;-81
2023/12/14 11:52:06;;;;;;;10.73;5.63;;;;;;;;;;5021564;28;20021;-80
2023/12/14 11:54:32;;;;;;;12.30;6.70;;;;;;;;;;5028300;28;20017;-81
2023/12/14 11:56:58;;;;;;;12.35;7.35;;;;;;;;;;5011173;28;20109;-80
2023/12/14 11:59:24;;;;;;;14.40;6.22;;;;;;;;;;5007836;28;20049;-81
2023/12/14 12:02:00;;;;;;;10.57;6.40;;;;;;;;;;5023912;28;20076;-80
2023/12/14 12:04:27;;;;;;;11.00;6.70;;;;;;;;;;5027462;28;20018;-80
2023/12/14 12:07:03;;;;;;;10.55;6.05;;;;;;;;;;5012398;28;20116;-80
2023/12/14 12:09:36;;;;;;;10.63;5.72;;;;;;;;;;5007596;28;20081;-80
2023/12/14 12:12:03;;;;;;;13.57;7.32;;;;;;;;;;5023208;28;20022;-81
2023/12/14 12:14:29;;;;;;;10.05;5.97;;;;;;;;;;5029542;28;20010;-82
2023/12/14 12:16:55;;;;;;;10.30;5.88;;;;;;;;;;5009584;28;20097;-79
2023/12/14 12:19:21;;;;;;;10.68;6.72;;;;;;;;;;5007818;28;20036;-79
2023/12/14 12:21:47;;;;;;;10.70;6.28;;;;;;;;;;5036349;28;20021;-79
2023/12/14 12:24:13;;;;;;;13.02;7.05;;;;;;;;;;5011025;28;20025;-79
2023/12/14 12:26:39;;;;;;;12.68;6.40;;;;;;;;;;5016682;28;20025;-79
2023/12/14 12:29:06;;;;;;;10.38;5.70;;;;;;;;;;5026001;28;20261;-79
2023/12/14 12:31:33;;;;;;;11.30;6.13;;;;;;;;;;5016688;28;20076;-79
2023/12/14 12:33:59;;;;;;;10.52;6.10;;;;;;;;;;5006065;28;20535;-79
2023/12/14 12:36:25;;;;;;;12.45;6.38;;;;;;;;;;5012922;28;20044;-79
2023/12/14 12:38:51;;;;;;;9.95;6.07;;;;;;;;;;5026509;28;20465;-79
2023/12/14 12:41:17;;;;;;;10.13;6.00;;;;;;;;;;5021375;28;20106;-79
2023/12/14 12:43:44;;;;;;;11.68;6.05;;;;;;;;;;5006746;28;20022;-79
2023/12/14 12:46:10;;;;;;;11.75;6.70;;;;;;;;;;5011200;28;20377;-79
2023/12/14 12:48:36;;;;;;;12.63;6.53;;;;;;;;;;5026315;28;20052;-79
2023/12/14 12:51:03;;;;;;;8.30;5.90;;;;;;;;;;5022852;28;20457;-79
2023/12/14 12:53:29;;;;;;;10.07;5.82;;;;;;;;;;5006735;28;20017;-79
2023/12/14 12:55:55;;;;;;;12.63;6.53;;;;;;;;;;5008419;28;20020;-79
2023/12/14 12:58:21;;;;;;;12.48;6.47;;;;;;;;;;5027529;28;20252;-79
2023/12/14 13:00:47;;;;;;;10.75;6.78;;;;;;;;;;5027021;28;20017;-79
2023/12/14 13:03:13;;;;;;;8.73;5.90;;;;;;;;;;5006504;28;20030;-79
2023/12/14 13:05:39;;;;;;;12.10;7.55;;;;;;;;;;5007842;28;20018;-79
2023/12/14 13:08:05;;;;;;;13.10;6.93;;;;;;;;;;5026667;28;20053;-79
2023/12/14 13:10:31;;;;;;;12.10;7.15;;;;;;;;;;5027460;28;20037;-79
2023/12/14 13:12:57;;;;;;;14.48;7.53;;;;;;;;;;5009241;28;20029;-79
2023/12/14 13:15:28;;;;;;;12.95;7.32;;;;;;;;;;5006773;28;20021;-79
2023/12/14 13:17:54;;;;;;;12.48;6.95;;;;;;;;;;5022055;28;20076;-79
2023/12/14 13:20:20;;;;;;;10.57;6.57;;;;;;;;;;5027439;28;20493;-79
2023/12/14 13:22:46;;;;;;;11.95;6.32;;;;;;;;;;5015004;28;20089;-79
2023/12/14 13:25:13;;;;;;;14.43;6.97;;;;;;;;;;5006298;28;20093;-79
2023/12/14 13:27:39;;;;;;;10.90;6.68;;;;;;;;;;5016968;28;20110;-79
2023/12/14 13:30:06;;;;;;;13.43;7.07;;;;;;;;;;5015101;28;20018;-79
2023/12/14 13:32:32;;;;;;;14.88;7.15;;;;;;;;;;5015260;28;20076;-79
2023/12/14 13:34:58;;;;;;;12.38;7.00;;;;;;;;;;5026697;28;20543;-79
2023/12/14 13:37:24;;;;;;;13.55;7.18;;;;;;;;;;5019463;28;20101;-79
2023/12/14 13:39:50;;;;;;;14.75;7.78;;;;;;;;;;5006074;28;20024;-79
2023/12/14 13:42:16;;;;;;;16.30;7.60;;;;;;;;;;5013938;28;20018;-79
2023/12/14 13:44:42;;;;;;;15.68;7.43;;;;;;;;;;5027065;28;20018;-79
2023/12/14 13:47:08;;;;;;;12.57;7.13;;;;;;;;;;5020852;28;20022;-79
2023/12/14 13:49:34;;;;;;;13.82;6.78;;;;;;;;;;5007457;28;20121;-79
2023/12/14 13:52:00;;;;;;;13.02;6.60;;;;;;;;;;5009375;28;20412;-79
2023/12/14 13:54:26;;;;;;;15.70;8.25;;;;;;;;;;5025525;28;20059;-79
2023/12/14 13:56:53;;;;;;;15.48;7.68;;;;;;;;;;5024262;28;20080;-79
2023/12/14 13:59:19;;;;;;;13.57;7.35;;;;;;;;;;5005781;28;20010;-79
2023/12/14 14:01:45;;;;;;;16.02;8.00;;;;;;;;;;5006294;28;20100;-79
2023/12/14 14:04:11;;;;;;;15.57;8.00;;;;;;;;;;5025692;28;20009;-80
2023/12/14 14:06:37;;;;;;;14.18;7.22;;;;;;;;;;5026839;28;20093;-79
2023/12/14 14:09:04;;;;;;;12.93;7.47;;;;;;;;;;5006925;28;20018;-79
2023/12/14 14:11:30;;;;;;;14.82;6.88;;;;;;;;;;5006977;28;20105;-79
2023/12/14 14:13:56;;;;;;;13.82;6.90;;;;;;;;;;5023452;28;20020;-79
2023/12/14 14:16:22;;;;;;;15.75;7.90;;;;;;;;;;5025058;28;20049;-79
2023/12/14 14:18:48;;;;;;;15.43;8.55;;;;;;;;;;5010250;28;20029;-79
2023/12/14 14:21:14;;;;;;;15.90;8.18;;;;;;;;;;5005674;28;20010;-79
2023/12/14 14:23:40;;;;;;;17.15;8.57;;;;;;;;;;5019332;28;20470;-79
2023/12/14 14:26:06;;;;;;;16.80;8.95;;;;;;;;;;5026934;28;20017;-79